Startpagina
METAR-TAF:

METAR-TAF

Vliegvelden :

Flughafen Hannover-Langenhagen

Hannover, Duitsland

breedte: 52-28N, lengte: 009-41E, hoogte: 56 m

Actueel weer

Dit bericht is 30 minuten geleden gemaakt, om 18:50 UTC
Wind 6 kt uit het noordnoordoosten
Temperatuur 19°C
Vochtigheid 52%
Druk 1023 hPa
Zicht 10 km of meer
geen wolken onder 1500 m en geen cumulonimbus

METAR: EDDV 311850Z 02006KT CAVOK 19/09 Q1023 NOSIG

Tijdstip: 21:20 (19:20 UTC)

Verwachting

Dit bericht is 2 uur en het 20 minuten geleden gemaakt, om 17:00 UTC
Verwachting geldig van 31 om 18 UTC tot 01 om 18 UTC
Wind 9 kt uit het oostnoordoosten
Zicht 10 km of meer
geen wolken onder 1500 m en geen cumulonimbus
Wijzigt naar
van 31 om 18 UTC tot 31 om 20 UTC
Wind 4 kt uit het oostnoordoosten
Wijzigt naar
van 01 om 06 UTC tot 01 om 08 UTC
Wind 9 kt uit het oosten

TAF: EDDV 311700Z 3118/0118 06009KT CAVOK BECMG 3118/3120 06004KT BECMG 0106/0108 08009KT

Waarnemingen en weersverwachtingen van meer dan 4000 vliegvelden (METAR en TAF).

De beschikbare stations zijn de gele en rode punten op de kaart.

Ga met uw muis naar het station om de naam te zien.

Klik dan om waarnemingen en weersverwachtingen te zien.

kaart wijzigen: klik op de groene knoppen met een zwart kruis om in te zoomen, op de groene knop met een streepje om uit te zoomen of op de groene pijlen voor aangrenzende kaarten.


METAR-TAF: